Time;durP1;ratioP1;P1;durP2;ratioP2;P2;SDS_P1;SDS_P2;PMS_P1;PMS_P2;Temp;Humidity;BMP_temperature;BMP_pressure;BME280_temperature;BME280_humidity;BME280_pressure;Samples;Min_cycle;Max_cycle;Signal;HPM_P1;HPM_P2
2021/06/17 00:03:34;;;;;;;4.90;3.08;;;28.60;40.90;;;;;;10081831;28;20041;-60
2021/06/17 00:08:24;;;;;;;3.70;3.15;;;28.40;41.40;;;;;;10080203;28;20072;-59
2021/06/17 00:13:22;;;;;;;5.47;3.08;;;28.30;41.90;;;;;;10084378;28;20021;-61
2021/06/17 00:18:13;;;;;;;10.25;3.70;;;28.20;42.20;;;;;;10088348;28;20486;-59
2021/06/17 00:23:04;;;;;;;5.80;3.47;;;28.00;42.70;;;;;;10080864;28;20033;-59
2021/06/17 00:27:56;;;;;;;5.28;3.55;;;27.70;43.00;;;;;;10082304;28;20052;-59
2021/06/17 00:32:47;;;;;;;4.40;3.20;;;27.80;43.20;;;;;;10078064;28;20021;-59
2021/06/17 00:37:38;;;;;;;4.15;3.20;;;27.90;43.40;;;;;;10082415;28;20027;-59
2021/06/17 00:42:29;;;;;;;5.20;3.70;;;27.70;44.00;;;;;;10077868;28;20426;-58
2021/06/17 00:47:19;;;;;;;4.07;3.28;;;27.60;44.20;;;;;;10082010;28;20052;-59
2021/06/17 00:52:11;;;;;;;5.80;3.58;;;27.70;44.30;;;;;;10079724;28;20784;-59
2021/06/17 00:57:07;;;;;;;5.00;4.03;;;27.60;44.40;;;;;;10087415;28;20038;-59
2021/06/17 01:01:58;;;;;;;5.70;3.35;;;27.50;44.70;;;;;;10083978;28;20184;-59
2021/06/17 01:06:51;;;;;;;4.97;3.55;;;27.40;45.10;;;;;;10088181;28;20037;-59
2021/06/17 01:12:19;;;;;;;4.45;3.78;;;27.40;45.10;;;;;;10087015;28;20036;-60
2021/06/17 01:17:12;;;;;;;5.43;3.97;;;27.50;45.20;;;;;;10078660;28;20128;-59
2021/06/17 01:22:19;;;;;;;5.80;3.50;;;27.50;45.00;;;;;;10084384;28;20042;-59
2021/06/17 01:27:32;;;;;;;4.30;3.22;;;27.40;45.50;;;;;;10086072;28;20313;-59
2021/06/17 01:32:25;;;;;;;4.60;3.17;;;27.30;45.60;;;;;;10084978;28;20030;-58
2021/06/17 01:37:20;;;;;;;3.53;3.05;;;27.30;45.50;;;;;;10087385;28;20146;-59
2021/06/17 01:42:12;;;;;;;3.78;2.72;;;27.20;45.60;;;;;;10084500;28;20078;-60
2021/06/17 01:47:04;;;;;;;5.10;3.42;;;27.20;45.50;;;;;;10085660;28;20033;-59
2021/06/17 01:51:56;;;;;;;4.07;2.88;;;27.10;45.80;;;;;;10083216;28;20225;-60
2021/06/17 01:56:49;;;;;;;3.28;2.90;;;27.10;45.60;;;;;;10082914;28;20025;-59
2021/06/17 02:01:42;;;;;;;5.93;3.15;;;26.90;45.80;;;;;;10086955;28;20609;-59
2021/06/17 02:06:34;;;;;;;3.60;2.58;;;26.70;45.90;;;;;;10080638;28;20091;-59
2021/06/17 02:11:26;;;;;;;4.63;2.78;;;26.20;46.50;;;;;;10083703;28;20602;-59
2021/06/17 02:16:20;;;;;;;3.38;2.80;;;26.00;46.50;;;;;;10084693;28;20029;-59
2021/06/17 02:21:12;;;;;;;3.92;2.78;;;26.10;46.10;;;;;;10084626;28;20036;-60
2021/06/17 02:26:06;;;;;;;4.10;3.70;;;26.10;46.20;;;;;;10081440;28;20043;-60
2021/06/17 02:31:00;;;;;;;3.83;3.00;;;26.00;46.20;;;;;;10081186;28;20033;-60
2021/06/17 02:35:53;;;;;;;2.97;2.67;;;26.20;45.90;;;;;;10084077;28;20463;-59
2021/06/17 02:40:47;;;;;;;7.65;3.30;;;26.20;45.90;;;;;;10084839;28;20103;-60
2021/06/17 02:45:39;;;;;;;3.65;2.72;;;25.80;46.30;;;;;;10085323;28;20025;-59
2021/06/17 02:50:30;;;;;;;4.32;3.17;;;25.80;46.50;;;;;;10081517;28;20309;-59
2021/06/17 02:55:21;;;;;;;4.43;2.75;;;25.90;46.10;;;;;;10083567;28;20505;-58
2021/06/17 03:00:16;;;;;;;3.80;2.90;;;26.00;46.00;;;;;;10080742;28;20033;-60
2021/06/17 03:05:08;;;;;;;;;;;26.00;46.10;;;;;;10085238;28;20029;-59
2021/06/17 03:10:10;;;;;;;3.33;3.00;;;25.90;46.20;;;;;;10077704;28;19921;-60
2021/06/17 03:15:04;;;;;;;5.90;3.55;;;26.10;46.10;;;;;;10083572;28;20037;-59
2021/06/17 03:19:57;;;;;;;5.15;3.25;;;26.10;45.90;;;;;;10082918;28;20037;-59
2021/06/17 03:24:49;;;;;;;5.97;3.25;;;26.00;46.00;;;;;;10085449;28;20067;-59
2021/06/17 03:29:44;;;;;;;7.28;3.10;;;26.00;46.00;;;;;;10081971;28;20029;-60
2021/06/17 03:34:37;;;;;;;6.10;3.45;;;26.00;46.30;;;;;;10079741;28;20372;-60
2021/06/17 03:39:28;;;;;;;4.22;3.42;;;25.80;46.50;;;;;;10082893;28;20021;-60
2021/06/17 03:44:21;;;;;;;6.82;4.43;;;25.80;46.80;;;;;;10079869;28;20407;-60
2021/06/17 03:49:13;;;;;;;5.85;3.80;;;25.70;46.90;;;;;;10083365;28;20032;-60
2021/06/17 03:54:05;;;;;;;4.07;3.53;;;25.80;47.00;;;;;;10080620;28;20531;-60
2021/06/17 03:58:56;;;;;;;4.75;3.17;;;25.70;47.10;;;;;;10082750;28;20143;-60
2021/06/17 04:03:47;;;;;;;7.90;4.13;;;25.70;47.30;;;;;;10079853;28;20025;-59
2021/06/17 04:08:43;;;;;;;5.10;3.97;;;25.80;47.60;;;;;;10082439;28;20183;-58
2021/06/17 04:13:38;;;;;;;9.35;5.20;;;25.80;47.90;;;;;;10079475;28;20040;-59
2021/06/17 04:18:31;;;;;;;6.15;4.78;;;25.50;48.80;;;;;;10083116;28;20029;-59
2021/06/17 04:23:23;;;;;;;7.15;4.45;;;25.70;49.10;;;;;;10079055;28;20037;-60
2021/06/17 04:28:15;;;;;;;5.88;4.40;;;25.60;49.40;;;;;;10081791;28;20490;-60
2021/06/17 04:33:10;;;;;;;5.05;3.90;;;25.50;49.60;;;;;;10089824;28;20029;-61
2021/06/17 04:38:01;;;;;;;;;;;25.50;49.90;;;;;;10087370;28;20037;-60
2021/06/17 04:42:58;;;;;;;9.38;3.97;;;25.40;49.90;;;;;;10089169;28;19999;-60
2021/06/17 04:47:50;;;;;;;5.15;3.75;;;25.40;49.80;;;;;;10085210;28;20591;-59
2021/06/17 04:52:59;;;;;;;5.10;3.95;;;25.40;49.90;;;;;;10086515;28;20458;-60
2021/06/17 04:57:50;;;;;;;8.70;3.88;;;25.20;50.80;;;;;;10086540;28;20017;-60
2021/06/17 05:02:40;;;;;;;4.05;3.63;;;25.10;50.80;;;;;;10087004;28;20029;-59
2021/06/17 05:12:22;;;;;;;4.28;3.33;;;25.20;51.30;;;;;;10087494;28;20034;-59
2021/06/17 05:17:13;;;;;;;4.57;3.53;;;25.30;51.20;;;;;;10092760;28;20774;-59
2021/06/17 05:22:04;;;;;;;7.07;4.03;;;25.30;51.30;;;;;;10086320;28;20040;-60
2021/06/17 05:26:55;;;;;;;6.05;3.88;;;25.40;51.70;;;;;;10087966;28;20041;-59
2021/06/17 05:31:46;;;;;;;6.20;3.72;;;25.50;51.50;;;;;;10083867;28;20083;-60
2021/06/17 05:36:36;;;;;;;6.32;4.05;;;25.40;52.00;;;;;;10088196;28;20029;-58
2021/06/17 05:41:27;;;;;;;4.82;3.97;;;25.40;51.80;;;;;;10083109;28;20021;-60
2021/06/17 05:46:18;;;;;;;5.30;4.63;;;25.30;52.20;;;;;;10087881;28;20067;-59
2021/06/17 05:51:08;;;;;;;5.82;4.32;;;25.10;52.90;;;;;;10085370;28;20438;-61
2021/06/17 05:56:00;;;;;;;5.72;3.05;;;25.20;53.00;;;;;;10086811;28;20029;-60
2021/06/17 06:00:51;;;;;;;5.00;3.70;;;25.30;52.90;;;;;;10083800;28;20459;-59
2021/06/17 06:05:42;;;;;;;5.95;3.92;;;25.10;53.20;;;;;;10084276;28;20360;-60
2021/06/17 06:10:33;;;;;;;8.80;3.97;;;25.30;53.00;;;;;;10086694;28;20049;-60
2021/06/17 06:15:25;;;;;;;7.53;4.00;;;25.30;53.40;;;;;;10084158;28;20681;-60
2021/06/17 06:20:15;;;;;;;5.32;3.65;;;25.60;52.50;;;;;;10090103;28;20349;-60
2021/06/17 06:25:07;;;;;;;5.32;4.57;;;25.70;52.30;;;;;;10090211;28;20113;-60
2021/06/17 06:30:03;;;;;;;7.28;4.47;;;25.90;52.00;;;;;;10083239;28;20029;-57
2021/06/17 06:34:54;;;;;;;5.03;3.83;;;26.10;51.60;;;;;;10080886;28;20070;-57
2021/06/17 06:39:44;;;;;;;8.27;4.15;;;26.30;51.50;;;;;;10083904;28;20086;-56
2021/06/17 06:44:35;;;;;;;5.13;3.92;;;26.40;51.40;;;;;;10084146;28;20534;-57
2021/06/17 06:49:26;;;;;;;6.40;3.92;;;26.60;51.20;;;;;;10078018;28;20525;-57
2021/06/17 06:54:18;;;;;;;6.28;4.93;;;26.80;50.70;;;;;;10082339;28;20024;-57
2021/06/17 06:59:09;;;;;;;7.90;3.78;;;27.10;50.40;;;;;;10078988;28;20090;-58
2021/06/17 07:04:00;;;;;;;8.60;5.72;;;27.50;50.00;;;;;;10084813;28;20499;-59
2021/06/17 07:08:50;;;;;;;7.32;4.90;;;27.60;49.90;;;;;;10080614;28;20495;-59
2021/06/17 07:13:41;;;;;;;5.65;4.93;;;27.80;49.70;;;;;;10082750;28;20032;-58
2021/06/17 07:18:32;;;;;;;4.80;4.13;;;28.00;49.40;;;;;;10082661;28;20020;-58
2021/06/17 07:23:27;;;;;;;4.07;3.35;;;28.00;49.20;;;;;;10080134;28;20473;-57
2021/06/17 07:28:17;;;;;;;;;;;28.20;49.10;;;;;;10082016;28;20025;-57
2021/06/17 07:33:08;;;;;;;4.40;3.67;;;28.40;48.70;;;;;;10051280;28;19916;-56
2021/06/17 07:37:59;;;;;;;4.25;3.38;;;28.40;48.70;;;;;;10072146;28;20056;-58
2021/06/17 07:42:49;;;;;;;4.43;3.70;;;28.40;48.60;;;;;;10080757;28;20039;-56
2021/06/17 07:47:41;;;;;;;8.70;4.38;;;28.30;48.50;;;;;;10082158;28;20269;-58
2021/06/17 07:52:32;;;;;;;5.05;3.70;;;28.30;48.50;;;;;;10080511;28;20436;-57
2021/06/17 07:57:23;;;;;;;6.05;3.47;;;28.50;48.40;;;;;;10082606;28;20021;-57
2021/06/17 08:02:13;;;;;;;5.00;3.90;;;28.50;48.20;;;;;;10081159;28;20118;-52
2021/06/17 08:07:04;;;;;;;5.80;3.47;;;28.60;48.00;;;;;;10086042;28;20041;-59
2021/06/17 08:11:55;;;;;;;5.65;4.45;;;28.70;48.10;;;;;;10090346;28;20044;-56
2021/06/17 08:16:45;;;;;;;5.32;4.40;;;28.80;47.90;;;;;;10086702;28;20037;-59
2021/06/17 08:21:36;;;;;;;4.65;3.72;;;29.10;47.60;;;;;;10087562;28;20643;-58
2021/06/17 08:26:28;;;;;;;5.78;4.40;;;29.30;47.50;;;;;;10085251;28;20036;-58
2021/06/17 08:31:18;;;;;;;6.97;4.13;;;29.50;47.30;;;;;;10089071;28;20256;-57
2021/06/17 08:36:10;;;;;;;7.10;4.22;;;29.50;47.30;;;;;;10088997;28;20056;-57
2021/06/17 08:41:01;;;;;;;6.82;4.15;;;29.70;47.20;;;;;;10088361;28;20514;-55
2021/06/17 08:45:52;;;;;;;8.65;4.93;;;29.80;47.20;;;;;;10089540;28;20029;-56
2021/06/17 08:50:42;;;;;;;8.82;4.07;;;29.80;47.20;;;;;;10088444;28;20094;-57
2021/06/17 08:55:36;;;;;;;4.65;3.70;;;29.90;47.10;;;;;;10089004;28;20078;-57
2021/06/17 09:00:28;;;;;;;;;;;30.00;47.10;;;;;;10089132;28;20087;-58
2021/06/17 09:05:20;;;;;;;5.30;3.25;;;30.00;47.10;;;;;;10085395;28;19917;-58
2021/06/17 09:10:11;;;;;;;4.80;3.33;;;30.20;46.80;;;;;;10090867;28;20044;-58
2021/06/17 09:15:03;;;;;;;4.90;3.67;;;30.20;46.70;;;;;;10085735;28;20086;-59
2021/06/17 09:19:54;;;;;;;5.13;4.10;;;30.30;46.40;;;;;;10087555;28;20059;-58
2021/06/17 09:24:51;;;;;;;7.43;3.45;;;30.50;46.10;;;;;;10086778;28;20065;-59
2021/06/17 09:29:42;;;;;;;4.82;3.53;;;30.50;46.00;;;;;;10085461;28;20120;-56
2021/06/17 09:34:33;;;;;;;3.35;3.00;;;30.50;45.60;;;;;;10084212;28;20044;-57
2021/06/17 09:39:26;;;;;;;4.07;3.67;;;30.60;45.50;;;;;;10087660;28;20040;-54
2021/06/17 09:44:31;;;;;;;7.63;4.30;;;30.70;45.10;;;;;;10088046;28;20037;-58
2021/06/17 09:49:27;;;;;;;5.80;4.72;;;30.90;44.60;;;;;;10086000;28;20229;-57
2021/06/17 09:54:25;;;;;;;6.07;3.85;;;30.90;44.50;;;;;;10082162;28;20059;-62
2021/06/17 09:59:33;;;;;;;4.22;3.80;;;30.70;44.30;;;;;;10084918;28;20127;-56
2021/06/17 10:04:26;;;;;;;4.32;3.92;;;30.90;43.80;;;;;;10081039;28;20033;-59
2021/06/17 10:09:17;;;;;;;5.03;4.53;;;31.00;43.70;;;;;;10083175;28;20037;-58
2021/06/17 10:14:10;;;;;;;4.57;4.18;;;31.10;43.50;;;;;;10084431;28;20443;-59
2021/06/17 10:19:01;;;;;;;5.28;4.05;;;31.30;43.20;;;;;;10089638;28;20235;-58
2021/06/17 10:23:53;;;;;;;6.53;4.10;;;31.30;43.20;;;;;;10083445;28;20033;-57
2021/06/17 10:28:47;;;;;;;5.15;4.38;;;31.40;43.00;;;;;;10081825;28;20037;-57
2021/06/17 10:33:39;;;;;;;4.63;3.40;;;31.50;43.00;;;;;;10081663;28;20020;-60
2021/06/17 10:38:30;;;;;;;8.68;4.00;;;31.70;42.80;;;;;;10081819;28;20571;-56
2021/06/17 10:43:22;;;;;;;4.30;3.88;;;31.90;42.60;;;;;;10080296;28;20029;-58
2021/06/17 10:48:14;;;;;;;5.72;4.60;;;32.00;42.50;;;;;;10083517;28;20543;-58
2021/06/17 10:53:28;;;;;;;4.97;4.35;;;32.10;42.30;;;;;;10082780;28;20064;-57
2021/06/17 10:58:42;;;;;;;6.85;5.28;;;32.20;42.10;;;;;;10082564;28;20775;-57
2021/06/17 11:03:36;;;;;;;;;;;32.20;42.00;;;;;;10082881;28;20032;-57
2021/06/17 11:08:28;;;;;;;;;;;32.40;41.90;;;;;;10081652;28;19925;-58
2021/06/17 11:13:34;;;;;;;6.07;4.75;;;32.30;42.20;;;;;;10086959;28;20363;-57
2021/06/17 11:23:56;;;;;;;6.00;4.88;;;32.50;42.20;;;;;;10085153;28;20544;-58
2021/06/17 11:28:49;;;;;;;6.63;5.35;;;32.50;42.50;;;;;;10075443;28;20101;-57
2021/06/17 11:33:46;;;;;;;;;;;32.60;42.30;;;;;;10087845;28;20045;-57
2021/06/17 11:38:38;;;;;;;7.25;6.00;;;32.60;42.30;;;;;;10081536;28;19923;-58
2021/06/17 11:43:29;;;;;;;6.22;4.85;;;32.70;42.40;;;;;;10080303;28;20075;-57
2021/06/17 11:48:21;;;;;;;7.55;6.78;;;32.80;42.20;;;;;;10083397;28;20178;-57
2021/06/17 11:53:17;;;;;;;6.50;5.45;;;32.70;42.30;;;;;;10079574;28;20036;-58
2021/06/17 11:58:08;;;;;;;7.95;6.18;;;33.10;42.30;;;;;;10081587;28;20025;-58
2021/06/17 12:02:59;;;;;;;6.00;5.13;;;33.20;42.30;;;;;;10078153;28;20110;-58
2021/06/17 12:07:51;;;;;;;9.13;5.95;;;33.30;42.10;;;;;;10081329;28;20166;-58
2021/06/17 12:12:52;;;;;;;7.28;5.30;;;33.40;42.20;;;;;;10082303;28;20059;-58
2021/06/17 12:17:55;;;;;;;7.20;5.95;;;34.00;41.70;;;;;;10079931;28;20028;-58
2021/06/17 12:23:05;;;;;;;6.82;5.43;;;34.20;41.90;;;;;;10084349;28;20131;-59
2021/06/17 12:27:59;;;;;;;7.63;6.43;;;34.60;40.40;;;;;;10080345;28;20033;-59
2021/06/17 12:32:50;;;;;;;7.18;5.47;;;34.90;40.70;;;;;;10081491;28;20017;-58
2021/06/17 12:37:59;;;;;;;7.07;5.90;;;35.30;40.40;;;;;;10080581;28;20124;-58
2021/06/17 12:43:12;;;;;;;9.02;5.90;;;35.30;40.20;;;;;;10079950;28;20060;-58
2021/06/17 12:48:13;;;;;;;7.50;5.18;;;36.20;39.80;;;;;;10085595;28;20048;-60
2021/06/17 12:53:04;;;;;;;6.50;5.88;;;36.80;39.60;;;;;;10086956;28;20029;-58
2021/06/17 12:57:57;;;;;;;;;;;37.10;39.30;;;;;;10089851;28;20037;-57
2021/06/17 13:02:50;;;;;;;6.80;5.07;;;37.90;37.90;;;;;;10086385;28;19930;-60
2021/06/17 13:07:58;;;;;;;5.82;5.32;;;38.50;38.20;;;;;;10087771;28;20454;-59
2021/06/17 13:12:50;;;;;;;7.05;5.85;;;39.00;36.40;;;;;;10077687;28;20378;-58
2021/06/17 13:17:43;;;;;;;5.57;4.97;;;39.90;35.90;;;;;;10085457;28;20093;-59
2021/06/17 13:22:46;;;;;;;5.40;4.90;;;40.60;35.00;;;;;;10088010;28;20033;-60
2021/06/17 13:27:37;;;;;;;5.70;5.20;;;40.50;34.40;;;;;;10086183;28;20309;-59
2021/06/17 13:32:29;;;;;;;5.43;4.93;;;41.10;33.50;;;;;;10086680;28;20063;-59
2021/06/17 13:37:20;;;;;;;6.15;5.10;;;41.50;32.70;;;;;;10085668;28;20029;-59
2021/06/17 13:42:12;;;;;;;10.50;4.93;;;41.40;32.20;;;;;;10084598;28;20037;-59
2021/06/17 13:47:03;;;;;;;5.57;5.07;;;41.40;32.10;;;;;;10086510;28;20036;-58
2021/06/17 13:51:56;;;;;;;7.95;4.68;;;41.50;31.70;;;;;;10085235;28;20029;-59
2021/06/17 13:56:47;;;;;;;4.80;4.30;;;41.70;30.90;;;;;;10087184;28;20021;-58
2021/06/17 14:01:37;;;;;;;6.43;4.60;;;41.50;30.10;;;;;;10083434;28;20044;-57
2021/06/17 14:06:28;;;;;;;5.00;4.47;;;41.70;29.70;;;;;;10083234;28;20040;-57
2021/06/17 14:11:19;;;;;;;5.25;4.72;;;41.70;29.30;;;;;;10084630;28;20029;-58
2021/06/17 14:16:09;;;;;;;5.15;4.63;;;41.80;29.10;;;;;;10082105;28;20487;-57
2021/06/17 14:21:02;;;;;;;4.13;3.75;;;41.50;28.90;;;;;;10084641;28;20033;-56
2021/06/17 14:25:53;;;;;;;6.57;4.45;;;41.40;28.80;;;;;;10081511;28;20047;-59
2021/06/17 14:30:45;;;;;;;5.38;4.50;;;41.50;28.60;;;;;;10080653;28;20477;-58
2021/06/17 14:35:38;;;;;;;6.00;4.68;;;42.20;28.10;;;;;;10084290;28;20647;-60
2021/06/17 14:40:29;;;;;;;10.98;4.70;;;42.70;27.70;;;;;;10082028;28;20429;-59
2021/06/17 14:45:20;;;;;;;4.97;4.55;;;42.70;27.60;;;;;;10082689;28;20479;-58
2021/06/17 14:50:11;;;;;;;7.18;4.90;;;43.10;27.40;;;;;;10083727;28;20489;-59
2021/06/17 14:55:02;;;;;;;4.88;3.72;;;43.30;27.00;;;;;;10080948;28;20661;-57
2021/06/17 14:59:53;;;;;;;6.32;4.43;;;43.20;27.00;;;;;;10083365;28;20055;-58
2021/06/17 15:04:43;;;;;;;6.40;5.30;;;42.90;27.10;;;;;;10080367;28;20110;-58
2021/06/17 15:09:34;;;;;;;5.15;4.65;;;43.50;26.80;;;;;;10083178;28;20040;-57
2021/06/17 15:14:25;;;;;;;5.68;4.30;;;43.40;26.30;;;;;;10083232;28;20029;-58
2021/06/17 15:19:16;;;;;;;5.05;4.55;;;43.30;26.40;;;;;;10080090;28;20033;-58
2021/06/17 15:24:07;;;;;;;5.97;4.90;;;43.80;26.10;;;;;;10082398;28;20045;-57
2021/06/17 15:28:58;;;;;;;5.95;4.18;;;43.90;25.90;;;;;;10082296;28;20354;-57
2021/06/17 15:33:50;;;;;;;6.50;5.10;;;44.10;25.90;;;;;;10079616;28;20446;-58
2021/06/17 15:38:42;;;;;;;5.50;4.97;;;44.00;25.90;;;;;;10065518;28;20028;-56
2021/06/17 15:43:33;;;;;;;7.13;4.53;;;44.10;25.90;;;;;;10078644;28;20036;-57
2021/06/17 15:48:25;;;;;;;4.97;4.57;;;44.20;25.90;;;;;;10079283;28;20040;-58
2021/06/17 15:53:16;;;;;;;4.82;4.22;;;44.50;25.70;;;;;;10082266;28;20029;-59
2021/06/17 15:58:07;;;;;;;8.55;5.45;;;44.80;25.50;;;;;;10078218;28;20031;-59
2021/06/17 16:02:58;;;;;;;6.75;5.15;;;44.70;25.50;;;;;;10079714;28;20025;-59
2021/06/17 16:07:51;;;;;;;5.35;4.82;;;44.70;25.50;;;;;;10079364;28;20040;-57
2021/06/17 16:12:42;;;;;;;6.45;4.32;;;44.80;25.50;;;;;;10077494;28;20036;-57
2021/06/17 16:17:32;;;;;;;5.28;4.38;;;44.50;25.50;;;;;;10083455;28;20553;-57
2021/06/17 16:22:23;;;;;;;5.47;4.97;;;44.30;25.30;;;;;;10062666;28;20087;-58
2021/06/17 16:27:14;;;;;;;5.93;4.68;;;44.50;25.30;;;;;;10084713;28;20047;-58
2021/06/17 16:32:05;;;;;;;5.32;4.82;;;45.10;25.10;;;;;;10087274;28;20431;-63
2021/06/17 16:36:56;;;;;;;5.80;4.85;;;45.70;24.90;;;;;;10087634;28;20031;-57
2021/06/17 16:41:48;;;;;;;7.72;4.97;;;46.50;24.60;;;;;;10089148;28;20051;-57
2021/06/17 16:46:39;;;;;;;8.25;5.20;;;47.00;24.50;;;;;;10085955;28;20033;-56
2021/06/17 16:51:30;;;;;;;7.72;4.85;;;47.60;24.30;;;;;;10088136;28;20025;-58
2021/06/17 16:56:20;;;;;;;6.30;5.70;;;47.70;24.30;;;;;;10085807;28;20113;-59
2021/06/17 17:01:11;;;;;;;6.10;4.60;;;47.90;24.30;;;;;;10084827;28;20041;-58
2021/06/17 17:06:02;;;;;;;7.38;5.70;;;47.30;24.40;;;;;;10087960;28;20266;-58
2021/06/17 17:10:53;;;;;;;5.63;4.07;;;47.40;24.10;;;;;;10085539;28;20656;-57
2021/06/17 17:15:44;;;;;;;6.90;4.72;;;47.10;23.70;;;;;;10086776;28;20040;-58
2021/06/17 17:20:35;;;;;;;6.20;4.95;;;46.80;23.70;;;;;;10086727;28;20032;-57
2021/06/17 17:25:27;;;;;;;5.63;4.15;;;45.90;23.60;;;;;;10084022;28;20041;-59
2021/06/17 17:30:18;;;;;;;5.50;4.05;;;45.80;23.50;;;;;;10086635;28;20089;-58
2021/06/17 17:35:10;;;;;;;4.93;4.22;;;45.40;23.70;;;;;;10085444;28;20438;-59
2021/06/17 17:40:01;;;;;;;5.70;4.40;;;45.20;24.10;;;;;;10084727;28;20036;-58
2021/06/17 17:44:54;;;;;;;7.90;5.00;;;44.70;24.40;;;;;;10086019;28;20090;-58
2021/06/17 17:49:45;;;;;;;5.72;3.83;;;44.20;24.50;;;;;;10080297;28;20029;-58
2021/06/17 17:54:36;;;;;;;5.03;4.22;;;43.70;24.80;;;;;;10086223;28;20033;-56
2021/06/17 17:59:27;;;;;;;9.48;5.97;;;43.20;25.20;;;;;;10084124;28;20202;-62
2021/06/17 18:04:17;;;;;;;9.05;5.20;;;42.50;25.50;;;;;;10084100;28;20037;-59
2021/06/17 18:09:08;;;;;;;5.47;4.40;;;41.00;26.30;;;;;;10086182;28;20442;-59
2021/06/17 18:14:00;;;;;;;8.38;4.82;;;39.60;27.20;;;;;;10081467;28;20031;-58
2021/06/17 18:18:51;;;;;;;6.65;5.57;;;38.70;27.70;;;;;;10086589;28;20333;-59
2021/06/17 18:23:42;;;;;;;6.05;4.43;;;37.90;28.20;;;;;;10084726;28;20040;-63
2021/06/17 18:28:33;;;;;;;7.28;4.65;;;37.20;28.90;;;;;;10081383;28;20506;-65
2021/06/17 18:33:23;;;;;;;8.35;6.50;;;36.90;29.30;;;;;;10084284;28;20064;-64
2021/06/17 18:38:15;;;;;;;7.70;5.65;;;36.80;29.60;;;;;;10083654;28;20467;-63
2021/06/17 18:43:06;;;;;;;5.80;5.20;;;36.50;30.00;;;;;;10075188;28;20152;-65
2021/06/17 18:47:57;;;;;;;12.68;5.82;;;36.40;30.70;;;;;;10078442;28;20069;-59
2021/06/17 18:52:48;;;;;;;6.63;5.90;;;36.10;31.70;;;;;;10081037;28;20037;-60
2021/06/17 18:57:40;;;;;;;6.85;5.25;;;35.20;33.70;;;;;;10081633;28;20052;-63
2021/06/17 19:02:31;;;;;;;6.63;5.90;;;34.80;34.70;;;;;;10082420;28;20490;-62
2021/06/17 19:07:22;;;;;;;11.38;9.02;;;34.50;35.70;;;;;;10084061;28;20467;-62
2021/06/17 19:12:16;;;;;;;8.95;6.97;;;34.30;36.10;;;;;;10084254;28;20040;-63
2021/06/17 19:17:07;;;;;;;11.20;7.18;;;34.20;36.60;;;;;;10081762;28;20032;-59
2021/06/17 19:21:58;;;;;;;8.85;7.28;;;34.00;37.20;;;;;;10083109;28;20044;-61
2021/06/17 19:26:49;;;;;;;6.80;5.95;;;33.90;37.70;;;;;;10082195;28;20037;-60
2021/06/17 19:31:42;;;;;;;6.85;6.15;;;33.70;38.20;;;;;;10083074;28;20104;-60
2021/06/17 19:36:33;;;;;;;7.03;5.82;;;33.50;38.90;;;;;;10081155;28;20013;-62
2021/06/17 19:41:24;;;;;;;7.32;6.50;;;33.30;39.20;;;;;;10079899;28;20032;-61
2021/06/17 19:46:15;;;;;;;11.23;6.47;;;33.30;39.80;;;;;;10082658;28;20025;-61
2021/06/17 19:51:06;;;;;;;6.60;5.93;;;33.20;40.60;;;;;;10082910;28;20407;-64
2021/06/17 20:00:48;;;;;;;9.55;6.22;;;33.10;40.50;;;;;;10082931;28;20523;-61
2021/06/17 20:05:44;;;;;;;7.65;6.43;;;33.00;40.80;;;;;;10077767;28;20611;-61
2021/06/17 20:10:36;;;;;;;6.38;5.65;;;32.90;41.20;;;;;;10081692;28;20283;-61
2021/06/17 20:15:27;;;;;;;8.38;6.93;;;32.90;41.10;;;;;;10082185;28;20032;-58
2021/06/17 20:20:18;;;;;;;7.80;6.15;;;32.80;41.50;;;;;;10079098;28;20029;-62
2021/06/17 20:25:09;;;;;;;7.88;5.50;;;32.80;41.70;;;;;;10075662;28;20045;-61
2021/06/17 20:30:00;;;;;;;9.40;6.45;;;32.70;41.60;;;;;;10080372;28;20045;-66
2021/06/17 20:34:51;;;;;;;6.68;5.70;;;32.80;41.50;;;;;;10080004;28;20036;-64
2021/06/17 20:39:41;;;;;;;7.75;5.40;;;32.70;41.70;;;;;;10085379;28;20070;-63
2021/06/17 20:44:32;;;;;;;6.60;6.00;;;32.80;41.40;;;;;;10081749;28;20032;-61
2021/06/17 20:49:24;;;;;;;9.15;5.45;;;32.90;41.20;;;;;;10082317;28;20036;-65
2021/06/17 20:54:21;;;;;;;8.52;6.70;;;32.90;41.10;;;;;;10082856;28;20033;-65
2021/06/17 20:59:12;;;;;;;6.70;5.70;;;32.90;41.20;;;;;;10084212;28;20037;-64
2021/06/17 21:04:03;;;;;;;7.57;6.45;;;32.70;41.30;;;;;;10084864;28;20037;-63
2021/06/17 21:08:54;;;;;;;7.93;6.55;;;32.60;41.60;;;;;;10079145;28;20653;-62
2021/06/17 21:13:44;;;;;;;6.32;5.70;;;32.50;41.70;;;;;;10083533;28;20657;-68
2021/06/17 21:18:35;;;;;;;7.82;6.15;;;32.40;41.90;;;;;;10086589;28;20492;-69
2021/06/17 21:23:26;;;;;;;9.70;6.80;;;32.40;42.20;;;;;;10084133;28;20072;-67
2021/06/17 21:28:17;;;;;;;8.93;7.32;;;32.20;43.00;;;;;;10089404;28;20689;-68
2021/06/17 21:33:08;;;;;;;9.80;7.15;;;32.20;43.10;;;;;;10083641;28;20029;-67
2021/06/17 21:37:59;;;;;;;9.18;7.13;;;32.20;43.10;;;;;;10080978;28;20096;-66
2021/06/17 21:42:50;;;;;;;11.10;7.05;;;32.00;43.30;;;;;;10087375;28;20033;-65
2021/06/17 21:47:41;;;;;;;10.23;7.35;;;31.90;43.30;;;;;;10085275;28;20036;-67
2021/06/17 21:52:31;;;;;;;11.32;7.43;;;32.00;43.10;;;;;;10087227;28;20029;-65
2021/06/17 21:57:22;;;;;;;8.65;7.07;;;32.00;43.20;;;;;;10082011;28;20340;-67
2021/06/17 22:02:13;;;;;;;11.15;7.07;;;31.90;43.40;;;;;;10086248;28;20048;-66
2021/06/17 22:07:04;;;;;;;13.45;7.97;;;31.70;43.60;;;;;;10086115;28;20138;-67
2021/06/17 22:11:55;;;;;;;10.50;8.07;;;31.60;43.90;;;;;;10085066;28;20039;-67
2021/06/17 22:16:45;;;;;;;8.52;7.05;;;31.60;43.90;;;;;;10086417;28;20040;-66
2021/06/17 22:21:36;;;;;;;12.07;8.07;;;31.60;44.00;;;;;;10082713;28;20038;-66
2021/06/17 22:26:26;;;;;;;10.68;8.63;;;31.60;43.90;;;;;;10083827;28;20029;-66
2021/06/17 22:31:19;;;;;;;10.07;8.38;;;31.50;44.10;;;;;;10085364;28;20060;-64
2021/06/17 22:36:09;;;;;;;9.98;7.88;;;31.00;44.70;;;;;;10082954;28;20314;-65
2021/06/17 22:41:00;;;;;;;10.65;7.22;;;31.00;44.90;;;;;;10085034;28;20462;-65
2021/06/17 22:45:51;;;;;;;9.18;7.88;;;30.90;45.00;;;;;;10083634;28;20051;-63
2021/06/17 22:50:42;;;;;;;9.52;7.53;;;30.80;45.40;;;;;;10083827;28;20067;-64
2021/06/17 22:55:32;;;;;;;9.07;7.03;;;30.70;45.50;;;;;;10084438;28;20064;-63
2021/06/17 23:00:23;;;;;;;10.55;7.10;;;30.60;45.80;;;;;;10081383;28;20037;-64
2021/06/17 23:05:15;;;;;;;9.57;6.90;;;30.30;46.50;;;;;;10083966;28;20515;-64
2021/06/17 23:10:07;;;;;;;10.90;6.50;;;30.30;46.50;;;;;;10083809;28;20706;-64
2021/06/17 23:14:58;;;;;;;11.57;7.13;;;30.00;47.30;;;;;;10083040;28;20233;-64
2021/06/17 23:19:48;;;;;;;9.02;6.93;;;29.70;47.70;;;;;;10089982;28;20108;-63
2021/06/17 23:24:39;;;;;;;11.13;7.15;;;29.60;47.90;;;;;;10080636;28;20179;-63
2021/06/17 23:29:30;;;;;;;6.68;5.85;;;29.80;48.40;;;;;;10084956;28;20028;-65
2021/06/17 23:34:20;;;;;;;9.48;6.80;;;30.10;47.40;;;;;;10083218;28;20029;-64
2021/06/17 23:39:11;;;;;;;7.95;6.63;;;30.20;47.20;;;;;;10079004;28;20447;-65
2021/06/17 23:44:05;;;;;;;6.70;5.90;;;30.30;47.30;;;;;;10082345;28;20114;-66
2021/06/17 23:48:56;;;;;;;5.93;5.32;;;30.40;47.50;;;;;;10080385;28;20025;-63
2021/06/17 23:53:47;;;;;;;8.88;6.88;;;30.40;47.30;;;;;;10081809;28;20041;-65
2021/06/17 23:58:38;;;;;;;6.72;6.07;;;30.20;47.30;;;;;;10083801;28;20044;-64
